KSBA/SBA METAR and TAF weather

Enter ICAO airport designator
Station Type Date Time Source
KSBA METAR 2021/03/05 13:53 UTC NOAA

KSBA 051353Z AUTO 00000KT 10SM CLR 04/03 A3017 RMK AO2 SLP217 T00390028 $


Station Type Date Time Source
KSBA Decoded METAR 2021/03/05 13:53 UTC NOAA

SANTA BARBARA MUNICIPAL, CA, United States (KSBA) 34-26N 119-51W 3M
Mar 05, 2021 - 08:53 AM EST / 2021.03.05 1353 UTC
Wind: Calm:0
Visibility: 10 mile(s):0
Sky conditions: clear
Temperature: 39.0 F (3.9 C)
Dew Point: 37.0 F (2.8 C)
Relative Humidity: 92%
Pressure (altimeter): 30.17 in. Hg (1021 hPa)
ob: KSBA 051353Z AUTO 00000KT 10SM CLR 04/03 A3017 RMK AO2 SLP217 T00390028
cycle: 14

Station Type Date Time Source
KSBA TAF 2021/03/05 12:39 UTC NOAA

TAF KSBA 051136Z 0512/0612 VRB03KT P6SM SKC
FM051800 16006KT P6SM SKC
FM052100 24007KT P6SM SKC
FM060300 VRB03KT P6SM BKN250

Example: see airport list